Time;durP1;ratioP1;P1;durP2;ratioP2;P2;SDS_P1;SDS_P2;PMS_P1;PMS_P2;Temp;Humidity;BMP_temperature;BMP_pressure;BME280_temperature;BME280_humidity;BME280_pressure;Samples;Min_cycle;Max_cycle;Signal;HPM_P1;HPM_P2
2022/03/13 00:00:15;;;;;;;15.30;12.67;;;9.50;1.20;;;;;;2612397;54;20426;-77
2022/03/13 00:02:45;;;;;;;19.67;12.33;;;9.40;1.30;;;;;;2614275;47;20419;-78
2022/03/13 00:05:16;;;;;;;15.23;12.53;;;9.40;1.50;;;;;;2614087;54;20469;-78
2022/03/13 00:07:45;;;;;;;15.23;12.20;;;9.40;1.10;;;;;;2613893;54;20487;-78
2022/03/13 00:10:10;;;;;;;16.37;12.60;;;9.40;1.00;;;;;;2613641;46;20547;-78
2022/03/13 00:12:37;;;;;;;13.80;11.07;;;9.50;1.00;;;;;;2613987;39;20906;-78
2022/03/13 00:15:10;;;;;;;13.23;11.83;;;9.50;1.00;;;;;;2613650;54;20425;-79
2022/03/13 00:18:03;;;;;;;15.53;12.23;;;9.50;1.00;;;;;;2615379;39;20783;-79
2022/03/13 00:20:30;;;;;;;15.47;11.73;;;9.40;1.00;;;;;;2614147;54;20445;-78
2022/03/13 00:22:57;;;;;;;16.20;12.43;;;9.50;1.00;;;;;;2614645;46;20560;-79
2022/03/13 00:25:23;;;;;;;16.03;11.60;;;9.40;1.00;;;;;;2611350;54;20421;-79
2022/03/13 00:27:49;;;;;;;16.23;11.47;;;9.30;1.00;;;;;;2613242;54;20417;-77
2022/03/13 00:30:16;;;;;;;13.03;10.70;;;9.40;1.00;;;;;;2613891;54;20868;-78
2022/03/13 00:32:43;;;;;;;20.20;12.03;;;9.40;1.00;;;;;;2614253;39;21046;-78
2022/03/13 00:35:11;;;;;;;12.73;11.00;;;9.40;1.00;;;;;;2611526;54;20422;-78
2022/03/13 00:37:37;;;;;;;14.30;11.10;;;9.50;1.00;;;;;;2611721;47;20176;-78
2022/03/13 00:40:04;;;;;;;13.53;10.60;;;9.60;1.00;;;;;;2613516;54;20523;-78
2022/03/13 00:42:32;;;;;;;15.50;11.50;;;9.60;1.00;;;;;;2613545;47;20423;-78
2022/03/13 00:44:58;;;;;;;13.53;11.40;;;9.40;1.00;;;;;;2614178;47;20446;-79
2022/03/13 00:47:24;;;;;;;13.83;11.43;;;9.30;1.30;;;;;;2614390;54;20414;-78
2022/03/13 00:49:51;;;;;;;14.17;10.53;;;9.20;1.10;;;;;;2614251;54;20402;-79
2022/03/13 00:52:17;;;;;;;12.90;11.60;;;9.20;1.20;;;;;;2613486;54;20451;-79
2022/03/13 00:54:43;;;;;;;14.93;10.70;;;9.10;1.40;;;;;;2613033;47;20446;-78
2022/03/13 00:57:09;;;;;;;14.00;12.27;;;9.10;1.20;;;;;;2613753;54;20951;-77
2022/03/13 00:59:35;;;;;;;15.43;12.60;;;8.90;2.30;;;;;;2614836;54;20514;-78
2022/03/13 01:02:02;;;;;;;12.13;10.83;;;9.00;1.70;;;;;;2614908;47;20312;-78
2022/03/13 01:04:28;;;;;;;15.40;11.50;;;8.90;1.00;;;;;;2613574;54;20966;-78
2022/03/13 01:06:55;;;;;;;13.10;11.40;;;8.80;1.30;;;;;;2614723;47;20505;-78
2022/03/13 01:09:21;;;;;;;14.20;11.80;;;8.70;2.60;;;;;;2612924;54;20428;-79
2022/03/13 01:11:46;;;;;;;13.37;11.33;;;8.70;1.60;;;;;;2612946;47;20433;-78
2022/03/13 01:14:15;;;;;;;15.60;11.93;;;8.80;1.40;;;;;;2613008;54;20422;-77
2022/03/13 01:16:41;;;;;;;12.77;10.60;;;8.80;1.40;;;;;;2614381;54;20138;-78
2022/03/13 01:19:08;;;;;;;15.53;12.37;;;8.90;1.00;;;;;;2614247;54;20405;-80
2022/03/13 01:21:39;;;;;;;11.73;9.90;;;8.90;1.00;;;;;;2613573;47;21271;-78
2022/03/13 01:24:05;;;;;;;17.47;12.27;;;8.80;1.00;;;;;;2614064;47;20457;-78
2022/03/13 01:26:36;;;;;;;12.17;10.87;;;8.70;1.00;;;;;;2613232;54;20398;-79
2022/03/13 01:29:09;;;;;;;14.60;10.73;;;8.60;1.40;;;;;;2614076;47;20203;-78
2022/03/13 01:31:38;;;;;;;16.93;12.37;;;8.50;2.50;;;;;;2615428;47;20413;-79
2022/03/13 01:34:06;;;;;;;13.10;10.77;;;8.40;3.10;;;;;;2614647;47;20422;-78
2022/03/13 01:36:36;;;;;;;16.87;12.40;;;8.30;4.20;;;;;;2616153;31;20859;-78
2022/03/13 01:39:03;;;;;;;18.33;12.60;;;8.20;3.90;;;;;;2615391;46;20433;-78
2022/03/13 01:41:34;;;;;;;14.87;12.40;;;8.00;6.10;;;;;;2613977;54;20421;-77
2022/03/13 01:44:01;;;;;;;16.30;12.87;;;7.90;6.20;;;;;;2612292;54;20442;-78
2022/03/13 01:46:27;;;;;;;12.80;11.43;;;8.00;4.60;;;;;;2615228;39;20831;-77
2022/03/13 01:48:59;;;;;;;15.17;11.80;;;7.80;6.10;;;;;;2615345;39;20801;-78
2022/03/13 01:51:26;;;;;;;15.77;13.10;;;7.70;7.00;;;;;;2615037;54;21102;-78
2022/03/13 01:53:57;;;;;;;18.63;11.67;;;7.60;7.60;;;;;;2614971;54;20570;-78
2022/03/13 01:56:24;;;;;;;13.60;11.43;;;7.60;8.10;;;;;;2614774;47;20421;-78
2022/03/13 01:58:53;;;;;;;14.13;11.80;;;7.60;8.80;;;;;;2613494;54;20465;-78
2022/03/13 02:01:21;;;;;;;12.13;10.90;;;7.40;9.00;;;;;;2614575;54;20411;-83
2022/03/13 02:03:49;;;;;;;17.10;12.03;;;7.40;9.00;;;;;;2615963;54;20389;-84
2022/03/13 02:06:16;;;;;;;13.43;11.20;;;7.40;9.20;;;;;;2616678;31;20925;-83
2022/03/13 02:09:14;;;;;;;14.03;11.67;;;7.40;7.90;;;;;;2615634;47;20417;-83
2022/03/13 02:11:42;;;;;;;14.13;12.60;;;7.40;4.30;;;;;;2614764;47;20460;-83
2022/03/13 02:14:11;;;;;;;13.30;11.37;;;7.20;8.70;;;;;;2614442;47;20570;-82
2022/03/13 02:16:39;;;;;;;17.73;10.90;;;7.10;9.30;;;;;;2613230;54;20416;-81
2022/03/13 02:19:06;;;;;;;16.90;13.20;;;7.10;9.30;;;;;;2615276;54;20428;-82
2022/03/13 02:21:45;;;;;;;20.70;11.10;;;7.10;9.10;;;;;;2614613;47;20422;-83
2022/03/13 02:24:49;;;;;;;12.80;11.23;;;6.90;8.00;;;;;;2614891;54;20513;-82
2022/03/13 02:27:22;;;;;;;13.63;11.50;;;6.90;7.90;;;;;;2613639;54;20428;-82
2022/03/13 02:29:53;;;;;;;19.20;11.20;;;6.90;7.10;;;;;;2613639;47;20480;-82
2022/03/13 02:32:20;;;;;;;15.43;11.60;;;7.10;2.60;;;;;;2614303;54;20485;-83
2022/03/13 02:34:47;;;;;;;12.57;11.10;;;7.20;1.00;;;;;;2613920;39;20865;-84
2022/03/13 02:37:40;;;;;;;15.90;11.93;;;7.30;1.00;;;;;;2614011;54;20434;-80
2022/03/13 02:40:14;;;;;;;12.03;10.73;;;7.50;1.00;;;;;;2614859;54;20447;-79
2022/03/13 02:42:40;;;;;;;11.60;10.03;;;7.70;1.00;;;;;;2614149;54;20456;-81
2022/03/13 02:45:06;;;;;;;15.57;11.07;;;7.80;1.00;;;;;;2614690;54;20488;-80
2022/03/13 02:47:34;;;;;;;13.03;11.10;;;7.80;1.00;;;;;;2613857;54;20402;-83
2022/03/13 02:50:00;;;;;;;13.97;11.03;;;7.80;1.00;;;;;;2612475;54;20927;-83
2022/03/13 02:52:28;;;;;;;22.33;11.50;;;7.80;1.00;;;;;;2612297;54;20508;-81
2022/03/13 02:54:55;;;;;;;13.97;12.10;;;7.80;1.00;;;;;;2613115;47;20443;-83
2022/03/13 02:57:22;;;;;;;12.50;11.30;;;7.90;1.00;;;;;;2614312;47;21016;-82
2022/03/13 02:59:49;;;;;;;12.97;11.00;;;7.90;1.00;;;;;;2614104;54;20385;-82
2022/03/13 03:02:18;;;;;;;18.23;11.40;;;8.00;1.00;;;;;;2615097;54;20393;-82
2022/03/13 03:04:44;;;;;;;15.03;12.03;;;7.90;1.00;;;;;;2615232;54;20417;-83
2022/03/13 03:07:11;;;;;;;20.33;12.90;;;7.90;1.00;;;;;;2614301;54;20389;-80
2022/03/13 03:09:37;;;;;;;12.37;11.07;;;7.90;1.00;;;;;;2614638;47;20413;-81
2022/03/13 03:12:04;;;;;;;18.80;12.37;;;7.90;1.00;;;;;;2615804;54;20441;-82
2022/03/13 03:14:32;;;;;;;16.40;12.33;;;7.80;1.00;;;;;;2615771;47;20422;-83
2022/03/13 03:16:58;;;;;;;14.63;11.13;;;7.70;1.00;;;;;;2613087;47;20396;-82
2022/03/13 03:19:26;;;;;;;15.60;11.70;;;7.80;1.00;;;;;;2615919;54;20484;-83
2022/03/13 03:21:53;;;;;;;12.70;11.40;;;7.80;1.00;;;;;;2615526;54;20456;-82
2022/03/13 03:24:23;;;;;;;13.53;11.67;;;7.80;1.00;;;;;;2614241;54;20413;-82
2022/03/13 03:26:49;;;;;;;15.00;10.83;;;7.80;1.00;;;;;;2615513;54;20397;-83
2022/03/13 03:29:15;;;;;;;14.47;11.27;;;7.80;1.00;;;;;;2615381;54;20416;-83
2022/03/13 03:32:07;;;;;;;13.10;11.73;;;7.80;1.00;;;;;;2615948;54;20448;-83
2022/03/13 03:34:33;;;;;;;14.60;11.20;;;7.80;1.00;;;;;;2614756;54;20479;-83
2022/03/13 03:37:26;;;;;;;13.13;10.47;;;7.80;1.00;;;;;;2615356;54;20425;-82
2022/03/13 03:39:52;;;;;;;13.50;11.03;;;7.80;1.00;;;;;;2614601;54;20414;-81
2022/03/13 03:42:45;;;;;;;13.03;10.80;;;7.60;1.00;;;;;;2615381;54;21027;-83
2022/03/13 03:45:11;;;;;;;13.00;10.40;;;7.40;1.00;;;;;;2615458;46;20423;-84
2022/03/13 03:47:38;;;;;;;12.30;10.60;;;7.30;1.00;;;;;;2616101;54;20475;-82
2022/03/13 03:50:33;;;;;;;22.70;12.50;;;7.10;1.00;;;;;;2615710;39;20881;-82
2022/03/13 03:52:59;;;;;;;13.60;10.93;;;7.00;1.00;;;;;;2615069;54;20425;-83
2022/03/13 03:55:28;;;;;;;14.00;10.93;;;6.80;1.00;;;;;;2614628;39;20974;-82
2022/03/13 03:57:56;;;;;;;13.93;10.87;;;6.60;1.00;;;;;;2615126;39;20770;-82
2022/03/13 04:00:25;;;;;;;15.93;11.43;;;6.60;1.00;;;;;;2613381;54;21151;-84
2022/03/13 04:02:51;;;;;;;14.37;10.90;;;6.70;1.00;;;;;;2614552;47;20975;-83
2022/03/13 04:05:17;;;;;;;14.30;10.60;;;6.70;1.00;;;;;;2613959;54;20434;-82
2022/03/13 04:07:45;;;;;;;15.37;11.03;;;6.80;1.00;;;;;;2615066;39;20773;-83
2022/03/13 04:10:12;;;;;;;12.87;11.10;;;6.80;1.00;;;;;;2615426;39;20607;-82
2022/03/13 04:12:39;;;;;;;13.33;12.00;;;6.70;1.00;;;;;;2614671;54;20488;-82
2022/03/13 04:15:05;;;;;;;18.90;12.10;;;6.70;1.00;;;;;;2614613;54;20412;-82
2022/03/13 04:17:31;;;;;;;16.10;11.43;;;6.60;1.00;;;;;;2615154;46;20577;-82
2022/03/13 04:19:58;;;;;;;17.47;12.00;;;6.60;1.00;;;;;;2614601;54;20406;-84
2022/03/13 04:22:25;;;;;;;13.77;11.20;;;6.50;1.00;;;;;;2614447;47;20459;-83
2022/03/13 04:24:52;;;;;;;15.07;10.90;;;6.50;1.00;;;;;;2614082;54;20411;-82
2022/03/13 04:27:19;;;;;;;12.90;10.90;;;6.30;1.00;;;;;;2614146;54;20410;-83
2022/03/13 04:29:47;;;;;;;13.30;10.83;;;6.30;1.00;;;;;;2616889;39;20761;-82
2022/03/13 04:32:14;;;;;;;14.53;11.90;;;6.30;1.00;;;;;;2615150;54;20162;-83
2022/03/13 04:34:40;;;;;;;13.90;12.00;;;6.20;1.00;;;;;;2615533;54;20524;-82
2022/03/13 04:37:06;;;;;;;19.10;11.10;;;6.10;1.00;;;;;;2615348;54;20412;-82
2022/03/13 04:39:35;;;;;;;15.90;11.67;;;6.10;1.00;;;;;;2615648;54;20382;-83
2022/03/13 04:42:05;;;;;;;13.10;11.10;;;5.90;1.00;;;;;;2615957;54;20250;-83
2022/03/13 04:44:32;;;;;;;13.20;11.70;;;5.70;1.00;;;;;;2613767;54;20403;-82
2022/03/13 04:47:00;;;;;;;17.23;13.50;;;5.80;1.00;;;;;;2616180;54;20400;-82
2022/03/13 04:49:26;;;;;;;16.00;12.07;;;5.80;1.00;;;;;;2614988;47;20411;-83
2022/03/13 04:51:53;;;;;;;12.67;11.00;;;5.80;1.00;;;;;;2615352;47;20972;-82
2022/03/13 04:54:21;;;;;;;14.10;11.20;;;5.70;1.00;;;;;;2615000;39;20533;-83
2022/03/13 04:56:46;;;;;;;13.80;10.90;;;5.70;1.00;;;;;;2616023;54;20409;-81
2022/03/13 04:59:12;;;;;;;16.53;12.23;;;5.60;1.00;;;;;;2614885;54;20147;-81
2022/03/13 05:01:38;;;;;;;15.10;11.70;;;5.60;1.00;;;;;;2615940;54;20431;-83
2022/03/13 05:04:05;;;;;;;16.50;12.13;;;5.40;1.00;;;;;;2615032;39;20830;-82
2022/03/13 05:06:37;;;;;;;14.70;12.20;;;5.40;1.00;;;;;;2615678;54;20383;-82
2022/03/13 05:09:06;;;;;;;20.23;11.30;;;5.30;1.00;;;;;;2615376;46;20491;-83
2022/03/13 05:11:32;;;;;;;12.60;10.30;;;5.20;1.00;;;;;;2615585;54;20456;-82
2022/03/13 05:13:58;;;;;;;18.13;12.37;;;5.20;1.00;;;;;;2615015;47;20430;-84
2022/03/13 05:16:49;;;;;;;17.30;11.33;;;5.20;1.50;;;;;;2615488;54;20403;-83
2022/03/13 05:19:15;;;;;;;15.73;11.40;;;5.10;2.60;;;;;;2612978;54;20879;-82
2022/03/13 05:21:41;;;;;;;14.47;11.60;;;5.10;2.50;;;;;;2614681;54;20408;-82
2022/03/13 05:24:07;;;;;;;16.50;12.10;;;4.90;4.20;;;;;;2613734;47;20406;-81
2022/03/13 05:26:33;;;;;;;16.50;11.20;;;4.90;4.90;;;;;;2613988;47;20459;-83
2022/03/13 05:28:59;;;;;;;22.77;11.87;;;4.90;5.60;;;;;;2614247;54;20408;-83
2022/03/13 05:31:52;;;;;;;15.67;11.97;;;5.00;4.80;;;;;;2613520;54;20426;-83
2022/03/13 05:34:18;;;;;;;14.80;11.60;;;4.90;4.40;;;;;;2614535;54;20379;-83
2022/03/13 05:36:44;;;;;;;14.30;12.00;;;4.70;3.80;;;;;;2614586;54;20379;-82
2022/03/13 05:39:10;;;;;;;19.73;14.00;;;4.60;4.90;;;;;;2614813;54;20155;-83
2022/03/13 05:41:39;;;;;;;15.20;11.83;;;4.60;5.50;;;;;;2614408;54;20913;-81
2022/03/13 05:44:09;;;;;;;20.90;11.93;;;4.60;5.70;;;;;;2613419;47;20526;-81
2022/03/13 05:46:35;;;;;;;14.23;10.90;;;4.50;6.70;;;;;;2614471;54;20404;-80
2022/03/13 05:49:02;;;;;;;15.90;12.90;;;4.70;6.30;;;;;;2614569;39;20759;-82
2022/03/13 05:51:55;;;;;;;16.57;12.27;;;4.70;6.30;;;;;;2613132;54;20400;-82
2022/03/13 05:54:21;;;;;;;15.67;11.20;;;4.70;6.00;;;;;;2613478;54;20431;-81
2022/03/13 05:57:15;;;;;;;25.10;12.10;;;4.80;6.40;;;;;;2614089;47;20443;-82
2022/03/13 05:59:41;;;;;;;15.37;11.73;;;4.70;6.50;;;;;;2613727;47;20500;-82
2022/03/13 06:02:08;;;;;;;14.90;12.23;;;4.80;7.40;;;;;;2613112;54;21027;-83
2022/03/13 06:04:37;;;;;;;15.20;12.20;;;4.90;7.20;;;;;;2614162;39;20549;-83
2022/03/13 06:07:08;;;;;;;18.47;12.40;;;5.00;6.50;;;;;;2613986;54;20422;-82
2022/03/13 06:09:34;;;;;;;16.53;12.50;;;5.00;6.00;;;;;;2614102;54;20384;-81
2022/03/13 06:11:59;;;;;;;16.90;12.10;;;5.00;5.70;;;;;;2613661;47;20458;-82
2022/03/13 06:14:49;;;;;;;16.17;11.80;;;5.10;5.90;;;;;;2614812;39;20680;-83
2022/03/13 06:17:14;;;;;;;16.37;12.47;;;5.00;7.80;;;;;;2613031;54;20150;-81
2022/03/13 06:19:42;;;;;;;18.00;11.47;;;5.20;8.30;;;;;;2614466;54;20395;-82
2022/03/13 06:22:12;;;;;;;22.20;13.03;;;5.20;6.60;;;;;;2614313;47;20167;-82
2022/03/13 06:24:38;;;;;;;15.63;12.40;;;5.20;6.60;;;;;;2613999;54;20466;-82
2022/03/13 06:27:10;;;;;;;16.00;11.87;;;5.30;6.20;;;;;;2615139;39;20827;-82
2022/03/13 06:30:08;;;;;;;18.40;12.17;;;5.20;5.40;;;;;;2614913;54;21114;-82
2022/03/13 06:32:34;;;;;;;14.53;12.10;;;5.30;3.40;;;;;;2614690;54;20395;-83
2022/03/13 06:35:01;;;;;;;15.27;12.27;;;5.40;4.40;;;;;;2615746;31;21076;-82
2022/03/13 06:37:28;;;;;;;14.67;11.30;;;5.60;4.00;;;;;;2614374;54;20559;-82
2022/03/13 06:39:54;;;;;;;15.77;12.80;;;5.90;2.50;;;;;;2614495;47;20996;-81
2022/03/13 06:42:20;;;;;;;12.87;10.80;;;6.30;1.00;;;;;;2614998;47;20535;-82
2022/03/13 06:44:48;;;;;;;16.30;12.20;;;6.70;1.00;;;;;;2614620;47;20387;-82
2022/03/13 06:47:14;;;;;;;16.03;12.93;;;7.10;1.00;;;;;;2614099;54;20426;-83
2022/03/13 06:50:08;;;;;;;19.90;12.40;;;7.40;1.00;;;;;;2616421;39;20841;-83
2022/03/13 06:52:35;;;;;;;20.13;12.20;;;7.50;1.00;;;;;;2614862;54;20593;-82
2022/03/13 06:55:04;;;;;;;15.70;12.63;;;7.70;1.00;;;;;;2614525;54;20439;-81
2022/03/13 06:57:30;;;;;;;16.40;12.40;;;7.90;1.00;;;;;;2614717;54;20453;-82
2022/03/13 06:59:57;;;;;;;14.73;12.30;;;8.00;1.00;;;;;;2615143;54;20426;-82
2022/03/13 07:02:54;;;;;;;19.10;13.40;;;8.20;1.00;;;;;;2614367;54;20442;-81
2022/03/13 07:05:20;;;;;;;16.00;14.30;;;8.40;1.00;;;;;;2615548;54;21288;-82
2022/03/13 07:07:46;;;;;;;15.97;11.50;;;8.50;1.00;;;;;;2614679;51;20917;-82
2022/03/13 07:10:12;;;;;;;17.83;13.20;;;8.80;1.00;;;;;;2614419;47;20591;-82
2022/03/13 07:12:40;;;;;;;16.13;14.53;;;9.40;1.00;;;;;;2614632;54;20498;-83
2022/03/13 07:15:12;;;;;;;14.70;13.07;;;9.90;1.00;;;;;;2613345;54;20412;-82
2022/03/13 07:17:39;;;;;;;16.10;12.63;;;10.30;1.00;;;;;;2614058;47;20430;-81
2022/03/13 07:24:08;;;;;;;13.07;11.70;;;10.30;1.00;;;;;;2615483;39;20887;-80
2022/03/13 07:26:35;;;;;;;14.73;11.27;;;10.10;1.00;;;;;;2614117;54;20384;-80
2022/03/13 07:29:06;;;;;;;13.70;11.30;;;10.00;1.00;;;;;;2613047;54;20487;-80
2022/03/13 07:31:31;;;;;;;12.20;10.83;;;10.00;1.00;;;;;;2615777;47;20492;-81
2022/03/13 07:33:58;;;;;;;13.13;11.77;;;9.90;1.00;;;;;;2614113;47;20445;-80
2022/03/13 07:36:35;;;;;;;13.70;12.17;;;10.00;1.00;;;;;;2614502;47;20262;-81
2022/03/13 07:39:05;;;;;;;13.27;11.17;;;10.00;1.00;;;;;;2613956;54;20495;-82
2022/03/13 07:41:33;;;;;;;13.50;10.97;;;10.20;1.00;;;;;;2614726;54;20404;-81
2022/03/13 07:44:04;;;;;;;14.70;11.83;;;10.40;1.00;;;;;;2615283;54;20515;-82
2022/03/13 07:46:49;;;;;;;14.03;11.73;;;10.60;1.00;;;;;;2615797;54;20452;-80
2022/03/13 07:49:21;;;;;;;17.23;12.37;;;10.90;1.00;;;;;;2615575;54;20416;-81
2022/03/13 07:51:47;;;;;;;13.47;11.90;;;11.20;1.00;;;;;;2615937;54;20400;-81
2022/03/13 07:54:14;;;;;;;16.47;12.13;;;11.90;1.00;;;;;;2613296;47;20459;-82
2022/03/13 07:57:09;;;;;;;13.37;11.97;;;12.20;1.00;;;;;;2615837;46;20435;-80
2022/03/13 07:59:47;;;;;;;14.60;12.23;;;12.20;1.00;;;;;;2614400;47;20391;-81
2022/03/13 08:02:14;;;;;;;16.60;11.80;;;12.10;1.00;;;;;;2616194;47;20424;-81
2022/03/13 08:04:50;;;;;;;13.63;11.47;;;11.60;1.00;;;;;;2615685;54;20506;-81
2022/03/13 08:07:16;;;;;;;16.40;11.77;;;11.40;1.00;;;;;;2614609;54;20407;-82
2022/03/13 08:09:42;;;;;;;17.43;12.17;;;11.30;1.00;;;;;;2614736;47;20577;-79
2022/03/13 08:12:08;;;;;;;15.33;12.90;;;11.20;1.00;;;;;;2613913;54;20454;-81
2022/03/13 08:14:35;;;;;;;11.63;10.43;;;11.20;1.00;;;;;;2614323;54;20402;-81
2022/03/13 08:17:01;;;;;;;14.73;13.07;;;11.10;1.00;;;;;;2614777;39;20905;-81
2022/03/13 08:19:56;;;;;;;16.40;11.53;;;11.10;1.00;;;;;;2614636;39;20516;-81
2022/03/13 08:22:23;;;;;;;15.50;13.17;;;11.30;1.00;;;;;;2614479;54;20411;-80
2022/03/13 08:24:48;;;;;;;14.27;12.73;;;11.40;1.00;;;;;;2615298;47;20487;-81
2022/03/13 08:27:16;;;;;;;21.80;14.43;;;11.50;1.00;;;;;;2614120;54;21341;-80
2022/03/13 08:29:42;;;;;;;12.57;11.27;;;11.50;1.00;;;;;;2614320;47;20197;-81
2022/03/13 08:32:36;;;;;;;14.07;12.60;;;11.80;1.00;;;;;;2614366;47;20415;-80
2022/03/13 08:35:03;;;;;;;15.70;11.90;;;12.00;1.00;;;;;;2615572;39;20785;-81
2022/03/13 08:37:56;;;;;;;14.10;12.40;;;12.10;1.00;;;;;;2612890;54;20396;-81
2022/03/13 08:40:55;;;;;;;17.00;13.87;;;12.20;1.00;;;;;;2613951;39;22621;-80
2022/03/13 08:43:22;;;;;;;13.53;12.23;;;12.50;1.00;;;;;;2614077;47;20426;-80
2022/03/13 08:45:49;;;;;;;17.50;13.97;;;13.20;1.00;;;;;;2614544;54;20420;-78
2022/03/13 08:48:42;;;;;;;14.90;13.47;;;13.50;1.00;;;;;;2614830;46;20394;-80
2022/03/13 08:51:11;;;;;;;16.17;14.10;;;14.30;1.00;;;;;;2615010;54;20431;-79
2022/03/13 08:53:37;;;;;;;16.77;15.10;;;14.90;1.00;;;;;;2615405;47;20434;-80
2022/03/13 08:56:03;;;;;;;17.07;15.17;;;15.60;1.00;;;;;;2615109;39;21253;-80
2022/03/13 08:58:29;;;;;;;15.20;13.70;;;15.80;1.00;;;;;;2612989;47;20432;-80
2022/03/13 09:00:56;;;;;;;17.87;14.33;;;15.40;1.00;;;;;;2614204;46;20432;-79
2022/03/13 09:03:22;;;;;;;17.90;16.30;;;15.50;1.00;;;;;;2615419;46;20601;-79
2022/03/13 09:05:49;;;;;;;17.43;15.73;;;15.60;1.00;;;;;;2615319;46;20477;-79
2022/03/13 09:08:16;;;;;;;17.60;15.97;;;;;;;;;;2616657;54;21256;-79
2022/03/13 09:10:48;;;;;;;19.33;17.63;;;;;;;;;;2616468;47;21057;-78
2022/03/13 09:13:17;;;;;;;19.57;17.30;;;17.50;1.00;;;;;;2615715;54;20451;-78
2022/03/13 09:15:44;;;;;;;20.37;18.37;;;17.50;1.00;;;;;;2615218;46;20428;-78
2022/03/13 09:18:13;;;;;;;19.00;16.73;;;;;;;;;;2615408;47;20177;-79
2022/03/13 09:20:43;;;;;;;17.83;15.90;;;17.20;1.00;;;;;;2616722;54;20569;-78
2022/03/13 09:23:18;;;;;;;18.83;16.87;;;;;;;;;;2616117;46;20429;-80
2022/03/13 09:25:44;;;;;;;18.20;16.40;;;16.40;1.00;;;;;;2616532;47;20399;-79
2022/03/13 09:28:11;;;;;;;17.90;16.20;;;16.40;1.00;;;;;;2615518;46;20430;-79
2022/03/13 09:30:39;;;;;;;19.20;17.37;;;16.50;1.00;;;;;;2615203;46;20413;-79
2022/03/13 09:33:06;;;;;;;20.80;18.70;;;16.90;1.00;;;;;;2615463;46;20421;-79
2022/03/13 09:35:32;;;;;;;18.80;17.00;;;;;;;;;;2615889;54;20440;-79
2022/03/13 09:38:00;;;;;;;21.73;19.47;;;17.90;1.00;;;;;;2616440;47;20421;-78
2022/03/13 09:40:29;;;;;;;20.90;18.97;;;18.20;1.00;;;;;;2616420;47;20483;-79
2022/03/13 09:42:56;;;;;;;21.90;19.70;;;19.10;1.00;;;;;;2615925;46;20454;-79
2022/03/13 09:45:22;;;;;;;22.00;19.90;;;18.90;1.00;;;;;;2615984;54;20898;-80
2022/03/13 09:47:48;;;;;;;23.47;19.47;;;18.90;1.00;;;;;;2615683;47;20164;-78
2022/03/13 09:50:15;;;;;;;21.00;18.90;;;18.80;1.00;;;;;;2615655;47;20443;-80
2022/03/13 09:53:08;;;;;;;20.13;18.07;;;19.00;1.00;;;;;;2616313;47;20432;-80
2022/03/13 09:55:35;;;;;;;21.47;19.23;;;18.50;1.00;;;;;;2616734;47;20424;-79
2022/03/13 09:58:01;;;;;;;21.60;19.53;;;18.00;1.00;;;;;;2616953;47;20418;-79
2022/03/13 10:00:27;;;;;;;20.53;18.60;;;18.70;1.00;;;;;;2616114;47;20541;-79
2022/03/13 10:02:54;;;;;;;19.80;18.03;;;19.30;1.00;;;;;;2615539;47;20163;-80
2022/03/13 10:05:47;;;;;;;22.87;20.80;;;19.30;1.00;;;;;;2616547;47;20427;-79
2022/03/13 10:08:43;;;;;;;23.20;21.00;;;20.10;1.00;;;;;;2616774;54;21002;-80
2022/03/13 10:11:10;;;;;;;22.03;19.93;;;20.00;1.00;;;;;;2616253;47;20419;-79
2022/03/13 10:17:48;;;;;;;21.53;19.57;;;19.80;1.00;;;;;;2615666;54;20488;-80
2022/03/13 10:20:20;;;;;;;20.20;18.30;;;19.80;1.00;;;;;;2615671;47;20412;-79
2022/03/13 10:23:02;;;;;;;22.97;20.97;;;20.00;1.00;;;;;;2616679;46;20577;-80
2022/03/13 10:25:29;;;;;;;22.37;20.37;;;;;;;;;;2615924;47;20408;-79
2022/03/13 10:28:00;;;;;;;22.37;20.10;;;;;;;;;;2614873;47;20410;-80
2022/03/13 10:30:26;;;;;;;20.83;19.03;;;20.40;1.00;;;;;;2613690;54;20430;-78
2022/03/13 10:32:59;;;;;;;21.53;19.43;;;20.50;1.00;;;;;;2612202;54;21062;-78
2022/03/13 10:35:24;;;;;;;20.67;18.60;;;19.80;1.00;;;;;;2615788;54;20163;-82
2022/03/13 10:37:52;;;;;;;20.13;18.47;;;20.10;1.00;;;;;;2618486;46;20498;-80
2022/03/13 10:40:24;;;;;;;21.13;19.20;;;20.10;1.00;;;;;;2617402;46;22149;-81
2022/03/13 10:42:54;;;;;;;19.83;18.17;;;19.80;1.00;;;;;;2616624;47;20406;-79
2022/03/13 10:45:38;;;;;;;21.67;18.60;;;19.60;1.00;;;;;;2616579;54;20408;-80
2022/03/13 10:48:28;;;;;;;20.20;18.23;;;19.70;1.00;;;;;;2616982;31;20894;-79
2022/03/13 10:51:03;;;;;;;18.00;16.50;;;19.90;1.00;;;;;;2618752;47;20413;-79
2022/03/13 10:53:38;;;;;;;19.40;17.70;;;20.00;1.00;;;;;;2618387;46;20401;-80
2022/03/13 10:56:13;;;;;;;18.77;17.03;;;20.00;1.00;;;;;;2618367;46;20869;-81
2022/03/13 10:58:48;;;;;;;19.00;17.30;;;20.00;1.00;;;;;;2618465;46;20446;-81
2022/03/13 11:01:20;;;;;;;18.30;16.80;;;20.10;1.00;;;;;;2618278;54;20409;-81
2022/03/13 11:04:22;;;;;;;20.33;18.37;;;20.40;1.00;;;;;;2619218;39;20447;-80
2022/03/13 11:10:57;;;;;;;18.67;16.87;;;;;;;;;;2617227;54;20544;-80
2022/03/13 11:13:28;;;;;;;17.77;16.20;;;20.90;1.00;;;;;;2617032;46;20571;-81
2022/03/13 11:15:56;;;;;;;19.97;18.27;;;20.40;1.00;;;;;;2617194;39;21459;-80
2022/03/13 11:18:32;;;;;;;18.60;16.83;;;19.90;1.00;;;;;;2618241;39;20910;-81
2022/03/13 11:21:00;;;;;;;18.70;16.93;;;20.10;1.00;;;;;;2616291;47;20426;-81
2022/03/13 11:23:31;;;;;;;19.13;17.53;;;20.00;1.00;;;;;;2617097;39;20883;-82
2022/03/13 11:25:58;;;;;;;17.93;16.33;;;20.30;1.00;;;;;;2617412;54;20436;-81
2022/03/13 11:28:27;;;;;;;17.90;16.30;;;20.50;1.00;;;;;;2617792;39;20789;-80
2022/03/13 11:30:53;;;;;;;17.07;15.60;;;20.40;1.00;;;;;;2616424;39;20870;-80
2022/03/13 11:33:34;;;;;;;16.50;15.20;;;20.40;1.00;;;;;;2616627;46;20418;-82
2022/03/13 11:36:29;;;;;;;16.73;15.33;;;20.40;1.00;;;;;;2616257;39;20930;-80
2022/03/13 11:38:56;;;;;;;17.40;15.87;;;20.60;1.00;;;;;;2617903;54;21028;-81
2022/03/13 11:41:39;;;;;;;15.17;13.97;;;20.50;1.00;;;;;;2616989;47;20429;-82
2022/03/13 11:44:19;;;;;;;14.53;13.43;;;;;;;;;;2618429;54;20413;-81
2022/03/13 11:47:31;;;;;;;16.00;14.70;;;20.10;1.00;;;;;;2617628;46;20991;-81
2022/03/13 11:50:44;;;;;;;16.53;15.03;;;20.00;1.00;;;;;;2617863;54;20676;-81
2022/03/13 11:53:24;;;;;;;15.83;14.57;;;;;;;;;;2613984;54;20399;-81
2022/03/13 11:55:59;;;;;;;19.77;16.13;;;19.00;1.00;;;;;;2617761;54;20408;-82
2022/03/13 11:58:51;;;;;;;17.33;15.73;;;19.80;1.00;;;;;;2617110;54;20440;-81
2022/03/13 12:01:20;;;;;;;18.53;16.90;;;19.70;1.00;;;;;;2617298;46;20435;-82
2022/03/13 12:04:01;;;;;;;20.30;18.50;;;19.80;1.00;;;;;;2617278;54;20421;-83
2022/03/13 12:06:56;;;;;;;17.20;15.90;;;20.10;1.00;;;;;;2617544;54;20410;-81
2022/03/13 12:09:43;;;;;;;17.27;15.67;;;20.10;1.00;;;;;;2617171;47;20518;-82
2022/03/13 12:12:14;;;;;;;18.07;16.13;;;20.20;1.00;;;;;;2616379;47;20457;-82
2022/03/13 12:14:52;;;;;;;17.87;16.17;;;20.50;1.00;;;;;;2617077;46;20914;-82
2022/03/13 12:17:20;;;;;;;18.13;16.50;;;;;;;;;;2616071;54;20407;-81
2022/03/13 12:20:10;;;;;;;16.47;15.03;;;;;;;;;;2617542;46;20422;-80
2022/03/13 12:22:37;;;;;;;18.03;16.43;;;21.20;1.00;;;;;;2615078;54;20432;-82
2022/03/13 12:25:03;;;;;;;18.93;17.23;;;;;;;;;;2613582;47;20430;-82
2022/03/13 12:27:30;;;;;;;16.10;14.90;;;21.40;1.00;;;;;;2613489;39;20511;-82
2022/03/13 12:29:58;;;;;;;17.23;15.77;;;21.00;1.00;;;;;;2615604;54;20456;-81
2022/03/13 12:32:33;;;;;;;16.57;14.80;;;21.20;1.00;;;;;;2617535;47;20438;-82
2022/03/13 12:35:03;;;;;;;17.67;15.93;;;21.00;1.00;;;;;;2617115;47;20421;-80
2022/03/13 12:37:30;;;;;;;16.40;15.20;;;20.70;1.00;;;;;;2616998;47;20486;-80
2022/03/13 12:40:00;;;;;;;17.53;16.03;;;20.50;1.00;;;;;;2617016;47;20426;-80
2022/03/13 12:42:34;;;;;;;16.60;15.30;;;20.20;1.00;;;;;;2617565;47;20436;-81
2022/03/13 12:45:15;;;;;;;15.67;14.37;;;20.70;1.00;;;;;;2618023;46;20475;-83
2022/03/13 12:47:46;;;;;;;15.40;14.20;;;20.50;1.00;;;;;;2618032;47;20406;-80
2022/03/13 12:50:14;;;;;;;15.63;14.43;;;20.30;1.00;;;;;;2618552;54;20410;-81
2022/03/13 12:52:42;;;;;;;16.40;14.93;;;20.20;1.00;;;;;;2617996;46;20425;-80
2022/03/13 12:55:10;;;;;;;14.23;13.17;;;20.00;1.00;;;;;;2617805;54;20971;-81
2022/03/13 12:57:38;;;;;;;16.03;14.83;;;20.40;1.00;;;;;;2617901;54;20950;-79
2022/03/13 13:00:07;;;;;;;17.00;15.70;;;20.40;1.00;;;;;;2617833;54;20915;-81
2022/03/13 13:02:35;;;;;;;16.17;14.90;;;20.40;1.00;;;;;;2618842;46;20920;-80
2022/03/13 13:05:12;;;;;;;16.87;15.47;;;20.50;1.00;;;;;;2617261;54;20414;-79
2022/03/13 13:07:40;;;;;;;16.40;14.90;;;21.00;1.00;;;;;;2617549;54;20407;-80
2022/03/13 13:10:09;;;;;;;15.70;14.40;;;21.10;1.00;;;;;;2617834;47;20434;-80
2022/03/13 13:12:37;;;;;;;15.37;14.13;;;21.20;1.00;;;;;;2618320;54;20440;-80
2022/03/13 13:15:11;;;;;;;14.27;13.07;;;21.10;1.00;;;;;;2618132;46;20422;-80
2022/03/13 13:17:39;;;;;;;13.70;12.50;;;21.10;1.00;;;;;;2618561;46;20479;-81